sensor_id;sensor_type;location;lat;lon;timestamp;temperature;humidity
11126;DHT22;5617;54.046;10.676;2022-12-18T00:00:39;-4.50;99.90
11126;DHT22;5617;54.046;10.676;2022-12-18T00:02:46;-4.50;99.90
11126;DHT22;5617;54.046;10.676;2022-12-18T00:04:54;-4.50;99.90
11126;DHT22;5617;54.046;10.676;2022-12-18T00:07:01;-4.50;99.90
11126;DHT22;5617;54.046;10.676;2022-12-18T00:09:10;-4.50;99.90
11126;DHT22;5617;54.046;10.676;2022-12-18T00:11:18;-4.50;99.90
11126;DHT22;5617;54.046;10.676;2022-12-18T00:13:27;-4.50;99.90
11126;DHT22;5617;54.046;10.676;2022-12-18T00:15:34;-4.30;99.90
11126;DHT22;5617;54.046;10.676;2022-12-18T00:17:41;-4.40;99.90
11126;DHT22;5617;54.046;10.676;2022-12-18T00:19:48;-4.40;99.90
11126;DHT22;5617;54.046;10.676;2022-12-18T00:21:56;-4.40;99.90
11126;DHT22;5617;54.046;10.676;2022-12-18T00:24:08;-4.30;99.90
11126;DHT22;5617;54.046;10.676;2022-12-18T00:26:17;-4.40;99.90
11126;DHT22;5617;54.046;10.676;2022-12-18T00:28:24;-4.30;99.90
11126;DHT22;5617;54.046;10.676;2022-12-18T00:30:31;-4.30;99.90
11126;DHT22;5617;54.046;10.676;2022-12-18T00:32:38;-4.30;99.90
11126;DHT22;5617;54.046;10.676;2022-12-18T00:34:45;-4.40;99.90
11126;DHT22;5617;54.046;10.676;2022-12-18T00:36:52;-4.40;99.90
11126;DHT22;5617;54.046;10.676;2022-12-18T00:39:03;-4.30;99.90
11126;DHT22;5617;54.046;10.676;2022-12-18T00:41:11;-4.40;99.90
11126;DHT22;5617;54.046;10.676;2022-12-18T00:43:18;-4.30;99.90
11126;DHT22;5617;54.046;10.676;2022-12-18T00:45:25;-4.40;99.90
11126;DHT22;5617;54.046;10.676;2022-12-18T00:47:33;-4.40;99.90
11126;DHT22;5617;54.046;10.676;2022-12-18T00:49:40;-4.40;99.90
11126;DHT22;5617;54.046;10.676;2022-12-18T00:51:47;-4.40;99.90
11126;DHT22;5617;54.046;10.676;2022-12-18T00:53:53;-4.40;99.90
11126;DHT22;5617;54.046;10.676;2022-12-18T00:56:02;-4.40;99.90
11126;DHT22;5617;54.046;10.676;2022-12-18T00:58:10;-4.40;99.90
11126;DHT22;5617;54.046;10.676;2022-12-18T01:00:17;-4.40;99.90
11126;DHT22;5617;54.046;10.676;2022-12-18T01:02:24;-4.50;99.90
11126;DHT22;5617;54.046;10.676;2022-12-18T01:04:32;-4.50;99.90
11126;DHT22;5617;54.046;10.676;2022-12-18T01:06:40;-4.50;99.90
11126;DHT22;5617;54.046;10.676;2022-12-18T01:08:46;-4.50;99.90
11126;DHT22;5617;54.046;10.676;2022-12-18T01:10:54;-4.60;99.90
11126;DHT22;5617;54.046;10.676;2022-12-18T01:13:02;-4.60;99.90
11126;DHT22;5617;54.046;10.676;2022-12-18T01:15:10;-4.60;99.90
11126;DHT22;5617;54.046;10.676;2022-12-18T01:17:18;-4.60;99.90
11126;DHT22;5617;54.046;10.676;2022-12-18T01:19:25;-4.60;99.90
11126;DHT22;5617;54.046;10.676;2022-12-18T01:21:33;-4.70;99.90
11126;DHT22;5617;54.046;10.676;2022-12-18T01:23:40;-4.60;99.90
11126;DHT22;5617;54.046;10.676;2022-12-18T01:25:47;-4.70;99.90
11126;DHT22;5617;54.046;10.676;2022-12-18T01:27:54;-4.60;99.90
11126;DHT22;5617;54.046;10.676;2022-12-18T01:30:03;-4.70;99.90
11126;DHT22;5617;54.046;10.676;2022-12-18T01:32:11;-4.80;99.90
11126;DHT22;5617;54.046;10.676;2022-12-18T01:34:17;-4.70;99.90
11126;DHT22;5617;54.046;10.676;2022-12-18T01:36:26;-4.80;99.90
11126;DHT22;5617;54.046;10.676;2022-12-18T01:38:34;-4.80;99.90
11126;DHT22;5617;54.046;10.676;2022-12-18T01:40:41;-4.90;99.90
11126;DHT22;5617;54.046;10.676;2022-12-18T01:42:50;-4.90;99.90
11126;DHT22;5617;54.046;10.676;2022-12-18T01:45:02;-5.00;99.90
11126;DHT22;5617;54.046;10.676;2022-12-18T01:47:15;-4.90;99.90
11126;DHT22;5617;54.046;10.676;2022-12-18T01:49:24;-5.00;99.90
11126;DHT22;5617;54.046;10.676;2022-12-18T01:51:31;-5.00;99.90
11126;DHT22;5617;54.046;10.676;2022-12-18T01:53:41;-5.10;99.90
11126;DHT22;5617;54.046;10.676;2022-12-18T01:55:49;-5.10;99.90
11126;DHT22;5617;54.046;10.676;2022-12-18T01:57:59;-5.10;99.90
11126;DHT22;5617;54.046;10.676;2022-12-18T02:00:12;-5.10;99.90
11126;DHT22;5617;54.046;10.676;2022-12-18T02:02:20;-5.10;99.90
11126;DHT22;5617;54.046;10.676;2022-12-18T02:04:28;-4.90;99.90
11126;DHT22;5617;54.046;10.676;2022-12-18T02:06:40;-5.20;99.90
11126;DHT22;5617;54.046;10.676;2022-12-18T02:08:57;-5.20;99.90
11126;DHT22;5617;54.046;10.676;2022-12-18T02:11:08;-5.20;99.90
11126;DHT22;5617;54.046;10.676;2022-12-18T02:13:20;-5.20;99.90
11126;DHT22;5617;54.046;10.676;2022-12-18T02:15:36;-5.20;99.90
11126;DHT22;5617;54.046;10.676;2022-12-18T02:17:49;-5.20;99.90
11126;DHT22;5617;54.046;10.676;2022-12-18T02:20:06;-5.10;99.90
11126;DHT22;5617;54.046;10.676;2022-12-18T02:22:25;-5.10;99.90
11126;DHT22;5617;54.046;10.676;2022-12-18T02:24:37;-5.30;99.90
11126;DHT22;5617;54.046;10.676;2022-12-18T02:26:49;-5.30;99.90
11126;DHT22;5617;54.046;10.676;2022-12-18T02:29:01;-5.30;99.90
11126;DHT22;5617;54.046;10.676;2022-12-18T02:31:13;-5.10;99.90
11126;DHT22;5617;54.046;10.676;2022-12-18T02:33:25;-5.30;99.90
11126;DHT22;5617;54.046;10.676;2022-12-18T02:35:33;-5.30;99.90
11126;DHT22;5617;54.046;10.676;2022-12-18T02:37:42;-5.30;99.90
11126;DHT22;5617;54.046;10.676;2022-12-18T02:39:51;-5.10;99.90
11126;DHT22;5617;54.046;10.676;2022-12-18T02:42:01;-5.30;99.90
11126;DHT22;5617;54.046;10.676;2022-12-18T02:44:14;-5.30;99.90
11126;DHT22;5617;54.046;10.676;2022-12-18T02:46:29;-5.30;99.90
11126;DHT22;5617;54.046;10.676;2022-12-18T02:48:37;-5.30;99.90
11126;DHT22;5617;54.046;10.676;2022-12-18T02:50:51;-5.30;99.90
11126;DHT22;5617;54.046;10.676;2022-12-18T02:53:07;-5.30;99.90
11126;DHT22;5617;54.046;10.676;2022-12-18T02:55:26;-5.20;99.90
11126;DHT22;5617;54.046;10.676;2022-12-18T02:57:40;-5.30;99.90
11126;DHT22;5617;54.046;10.676;2022-12-18T02:59:56;-5.30;99.90
11126;DHT22;5617;54.046;10.676;2022-12-18T03:02:09;-5.40;99.90
11126;DHT22;5617;54.046;10.676;2022-12-18T03:04:22;-5.40;99.90
11126;DHT22;5617;54.046;10.676;2022-12-18T03:06:35;-5.40;99.90
11126;DHT22;5617;54.046;10.676;2022-12-18T03:08:46;-5.40;99.90
11126;DHT22;5617;54.046;10.676;2022-12-18T03:10:58;-5.40;99.90
11126;DHT22;5617;54.046;10.676;2022-12-18T03:13:12;-5.50;99.90
11126;DHT22;5617;54.046;10.676;2022-12-18T03:15:24;-5.50;99.90
11126;DHT22;5617;54.046;10.676;2022-12-18T03:17:33;-5.50;99.90
11126;DHT22;5617;54.046;10.676;2022-12-18T03:19:41;-5.50;99.90
11126;DHT22;5617;54.046;10.676;2022-12-18T03:21:53;-5.50;99.90
11126;DHT22;5617;54.046;10.676;2022-12-18T03:24:01;-5.50;99.90
11126;DHT22;5617;54.046;10.676;2022-12-18T03:26:12;-5.60;99.90
11126;DHT22;5617;54.046;10.676;2022-12-18T03:28:22;-5.60;99.90
11126;DHT22;5617;54.046;10.676;2022-12-18T03:30:30;-5.40;99.90
11126;DHT22;5617;54.046;10.676;2022-12-18T03:32:42;-5.60;99.90
11126;DHT22;5617;54.046;10.676;2022-12-18T03:34:52;-5.60;99.90
11126;DHT22;5617;54.046;10.676;2022-12-18T03:37:03;-5.60;99.90
11126;DHT22;5617;54.046;10.676;2022-12-18T03:39:10;-5.60;99.90
11126;DHT22;5617;54.046;10.676;2022-12-18T03:41:22;-5.50;99.90
11126;DHT22;5617;54.046;10.676;2022-12-18T03:43:44;-5.70;99.90
11126;DHT22;5617;54.046;10.676;2022-12-18T03:45:56;-5.70;99.90
11126;DHT22;5617;54.046;10.676;2022-12-18T03:48:08;-5.70;99.90
11126;DHT22;5617;54.046;10.676;2022-12-18T03:50:22;-5.50;99.90
11126;DHT22;5617;54.046;10.676;2022-12-18T03:52:36;-5.70;99.90
11126;DHT22;5617;54.046;10.676;2022-12-18T03:54:45;-5.60;99.90
11126;DHT22;5617;54.046;10.676;2022-12-18T03:56:57;-5.70;99.90
11126;DHT22;5617;54.046;10.676;2022-12-18T03:59:07;-5.70;99.90
11126;DHT22;5617;54.046;10.676;2022-12-18T04:01:16;-5.70;99.90
11126;DHT22;5617;54.046;10.676;2022-12-18T04:03:24;-5.60;99.90
11126;DHT22;5617;54.046;10.676;2022-12-18T04:05:33;-5.70;99.90
11126;DHT22;5617;54.046;10.676;2022-12-18T04:07:43;-5.70;99.90
11126;DHT22;5617;54.046;10.676;2022-12-18T04:09:54;-5.50;99.90
11126;DHT22;5617;54.046;10.676;2022-12-18T04:12:02;-5.70;99.90
11126;DHT22;5617;54.046;10.676;2022-12-18T04:14:10;-5.70;99.90
11126;DHT22;5617;54.046;10.676;2022-12-18T04:16:17;-5.60;99.90
11126;DHT22;5617;54.046;10.676;2022-12-18T04:18:24;-5.70;99.90
11126;DHT22;5617;54.046;10.676;2022-12-18T04:20:31;-5.70;99.90
11126;DHT22;5617;54.046;10.676;2022-12-18T04:22:38;-5.70;99.90
11126;DHT22;5617;54.046;10.676;2022-12-18T04:24:45;-5.60;99.90
11126;DHT22;5617;54.046;10.676;2022-12-18T04:26:52;-5.70;99.90
11126;DHT22;5617;54.046;10.676;2022-12-18T04:28:58;-5.80;99.90
11126;DHT22;5617;54.046;10.676;2022-12-18T04:31:07;-5.80;99.90
11126;DHT22;5617;54.046;10.676;2022-12-18T04:33:14;-5.80;99.90
11126;DHT22;5617;54.046;10.676;2022-12-18T04:35:23;-5.60;99.90
11126;DHT22;5617;54.046;10.676;2022-12-18T04:37:30;-5.80;99.90
11126;DHT22;5617;54.046;10.676;2022-12-18T04:39:37;-5.80;99.90
11126;DHT22;5617;54.046;10.676;2022-12-18T04:41:44;-5.90;99.90
11126;DHT22;5617;54.046;10.676;2022-12-18T04:43:51;-5.90;99.90
11126;DHT22;5617;54.046;10.676;2022-12-18T04:46:02;-5.90;99.90
11126;DHT22;5617;54.046;10.676;2022-12-18T04:48:10;-5.90;99.90
11126;DHT22;5617;54.046;10.676;2022-12-18T04:50:17;-5.90;99.90
11126;DHT22;5617;54.046;10.676;2022-12-18T04:52:24;-5.90;99.90
11126;DHT22;5617;54.046;10.676;2022-12-18T04:54:31;-5.90;99.90
11126;DHT22;5617;54.046;10.676;2022-12-18T04:56:38;-5.90;99.90
11126;DHT22;5617;54.046;10.676;2022-12-18T04:58:45;-5.90;99.90
11126;DHT22;5617;54.046;10.676;2022-12-18T05:00:52;-5.70;99.90
11126;DHT22;5617;54.046;10.676;2022-12-18T05:03:00;-5.90;99.90
11126;DHT22;5617;54.046;10.676;2022-12-18T05:05:09;-5.80;99.90
11126;DHT22;5617;54.046;10.676;2022-12-18T05:07:16;-5.80;99.90
11126;DHT22;5617;54.046;10.676;2022-12-18T05:09:23;-5.80;99.90
11126;DHT22;5617;54.046;10.676;2022-12-18T05:11:30;-5.80;99.90
11126;DHT22;5617;54.046;10.676;2022-12-18T05:13:37;-5.80;99.90
11126;DHT22;5617;54.046;10.676;2022-12-18T05:15:51;-5.80;99.90
11126;DHT22;5617;54.046;10.676;2022-12-18T05:17:59;-5.80;99.90
11126;DHT22;5617;54.046;10.676;2022-12-18T05:20:06;-5.80;99.90
11126;DHT22;5617;54.046;10.676;2022-12-18T05:22:15;-5.90;99.90
11126;DHT22;5617;54.046;10.676;2022-12-18T05:24:21;-5.90;99.90
11126;DHT22;5617;54.046;10.676;2022-12-18T05:26:28;-5.80;99.90
11126;DHT22;5617;54.046;10.676;2022-12-18T05:28:35;-5.90;99.90
11126;DHT22;5617;54.046;10.676;2022-12-18T05:30:42;-5.90;99.90
11126;DHT22;5617;54.046;10.676;2022-12-18T05:32:49;-6.00;99.90
11126;DHT22;5617;54.046;10.676;2022-12-18T05:34:56;-6.00;99.90
11126;DHT22;5617;54.046;10.676;2022-12-18T05:37:03;-5.80;99.90
11126;DHT22;5617;54.046;10.676;2022-12-18T05:39:11;-6.00;99.90
11126;DHT22;5617;54.046;10.676;2022-12-18T05:41:18;-6.00;99.90
11126;DHT22;5617;54.046;10.676;2022-12-18T05:43:26;-6.00;99.90
11126;DHT22;5617;54.046;10.676;2022-12-18T05:45:33;-6.00;99.90
11126;DHT22;5617;54.046;10.676;2022-12-18T05:47:42;-5.80;99.90
11126;DHT22;5617;54.046;10.676;2022-12-18T05:49:49;-6.00;99.90
11126;DHT22;5617;54.046;10.676;2022-12-18T05:51:56;-6.00;99.90
11126;DHT22;5617;54.046;10.676;2022-12-18T05:54:03;-6.00;99.90
11126;DHT22;5617;54.046;10.676;2022-12-18T05:56:13;-6.00;99.90
11126;DHT22;5617;54.046;10.676;2022-12-18T05:58:21;-5.90;99.90
11126;DHT22;5617;54.046;10.676;2022-12-18T06:00:27;-6.10;99.90
11126;DHT22;5617;54.046;10.676;2022-12-18T06:02:34;-6.10;99.90
11126;DHT22;5617;54.046;10.676;2022-12-18T06:04:41;-6.10;99.90
11126;DHT22;5617;54.046;10.676;2022-12-18T06:06:48;-6.10;99.90
11126;DHT22;5617;54.046;10.676;2022-12-18T06:08:56;-6.10;99.90
11126;DHT22;5617;54.046;10.676;2022-12-18T06:11:03;-6.10;99.90
11126;DHT22;5617;54.046;10.676;2022-12-18T06:13:11;-6.10;99.90
11126;DHT22;5617;54.046;10.676;2022-12-18T06:15:18;-6.10;99.90
11126;DHT22;5617;54.046;10.676;2022-12-18T06:17:27;-6.10;99.90
11126;DHT22;5617;54.046;10.676;2022-12-18T06:19:35;-6.10;99.90
11126;DHT22;5617;54.046;10.676;2022-12-18T06:21:42;-6.10;99.90
11126;DHT22;5617;54.046;10.676;2022-12-18T06:23:49;-5.90;99.90
11126;DHT22;5617;54.046;10.676;2022-12-18T06:25:57;-6.10;99.90
11126;DHT22;5617;54.046;10.676;2022-12-18T06:28:04;-6.10;99.90
11126;DHT22;5617;54.046;10.676;2022-12-18T06:30:13;-6.10;99.90
11126;DHT22;5617;54.046;10.676;2022-12-18T06:32:20;-6.10;99.90
11126;DHT22;5617;54.046;10.676;2022-12-18T06:34:27;-6.10;99.90
11126;DHT22;5617;54.046;10.676;2022-12-18T06:36:36;-6.10;99.90
11126;DHT22;5617;54.046;10.676;2022-12-18T06:38:43;-6.10;99.90
11126;DHT22;5617;54.046;10.676;2022-12-18T06:40:50;-6.20;99.90
11126;DHT22;5617;54.046;10.676;2022-12-18T06:42:58;-6.20;99.90
11126;DHT22;5617;54.046;10.676;2022-12-18T06:45:05;-6.20;99.90
11126;DHT22;5617;54.046;10.676;2022-12-18T06:47:14;-6.20;99.90
11126;DHT22;5617;54.046;10.676;2022-12-18T06:49:21;-6.20;99.90
11126;DHT22;5617;54.046;10.676;2022-12-18T06:51:28;-6.20;99.90
11126;DHT22;5617;54.046;10.676;2022-12-18T06:53:34;-6.20;99.90
11126;DHT22;5617;54.046;10.676;2022-12-18T06:55:42;-6.20;99.90
11126;DHT22;5617;54.046;10.676;2022-12-18T06:57:49;-6.20;99.90
11126;DHT22;5617;54.046;10.676;2022-12-18T06:59:56;-6.20;99.90
11126;DHT22;5617;54.046;10.676;2022-12-18T07:02:03;-6.20;99.90
11126;DHT22;5617;54.046;10.676;2022-12-18T07:04:12;-6.10;99.90
11126;DHT22;5617;54.046;10.676;2022-12-18T07:06:20;-6.10;99.90
11126;DHT22;5617;54.046;10.676;2022-12-18T07:08:31;-6.20;99.90
11126;DHT22;5617;54.046;10.676;2022-12-18T07:10:41;-6.20;99.90
11126;DHT22;5617;54.046;10.676;2022-12-18T07:12:48;-6.20;99.90
11126;DHT22;5617;54.046;10.676;2022-12-18T07:14:55;-6.20;99.90
11126;DHT22;5617;54.046;10.676;2022-12-18T07:17:02;-6.20;99.90
11126;DHT22;5617;54.046;10.676;2022-12-18T07:19:11;-6.30;99.90
11126;DHT22;5617;54.046;10.676;2022-12-18T07:21:19;-6.20;99.90
11126;DHT22;5617;54.046;10.676;2022-12-18T07:23:26;-6.30;99.90
11126;DHT22;5617;54.046;10.676;2022-12-18T07:25:34;-6.20;99.90
11126;DHT22;5617;54.046;10.676;2022-12-18T07:27:41;-6.20;99.90
11126;DHT22;5617;54.046;10.676;2022-12-18T07:29:48;-6.20;99.90
11126;DHT22;5617;54.046;10.676;2022-12-18T07:31:55;-6.20;99.90
11126;DHT22;5617;54.046;10.676;2022-12-18T07:34:02;-6.20;99.90
11126;DHT22;5617;54.046;10.676;2022-12-18T07:36:10;-6.10;99.90
11126;DHT22;5617;54.046;10.676;2022-12-18T07:38:17;-6.30;99.90
11126;DHT22;5617;54.046;10.676;2022-12-18T07:40:24;-6.30;99.90
11126;DHT22;5617;54.046;10.676;2022-12-18T07:42:31;-6.30;99.90
11126;DHT22;5617;54.046;10.676;2022-12-18T07:44:38;-6.30;99.90
11126;DHT22;5617;54.046;10.676;2022-12-18T07:46:45;-6.30;99.90
11126;DHT22;5617;54.046;10.676;2022-12-18T07:48:52;-6.30;99.90
11126;DHT22;5617;54.046;10.676;2022-12-18T07:50:59;-6.10;99.90
11126;DHT22;5617;54.046;10.676;2022-12-18T07:53:07;-6.30;99.90
11126;DHT22;5617;54.046;10.676;2022-12-18T07:55:14;-6.30;99.90
11126;DHT22;5617;54.046;10.676;2022-12-18T07:57:21;-6.30;99.90
11126;DHT22;5617;54.046;10.676;2022-12-18T07:59:28;-6.30;99.90
11126;DHT22;5617;54.046;10.676;2022-12-18T08:01:35;-6.10;99.90
11126;DHT22;5617;54.046;10.676;2022-12-18T08:03:42;-6.30;99.90
11126;DHT22;5617;54.046;10.676;2022-12-18T08:05:49;-6.10;99.90
11126;DHT22;5617;54.046;10.676;2022-12-18T08:07:56;-6.20;99.90
11126;DHT22;5617;54.046;10.676;2022-12-18T08:10:07;-6.30;99.90
11126;DHT22;5617;54.046;10.676;2022-12-18T08:12:14;-6.20;99.90
11126;DHT22;5617;54.046;10.676;2022-12-18T08:14:21;-6.20;99.90
11126;DHT22;5617;54.046;10.676;2022-12-18T08:16:28;-6.10;99.90
11126;DHT22;5617;54.046;10.676;2022-12-18T08:18:36;-6.00;99.90
11126;DHT22;5617;54.046;10.676;2022-12-18T08:20:46;-6.20;99.90
11126;DHT22;5617;54.046;10.676;2022-12-18T08:22:53;-6.20;99.90
11126;DHT22;5617;54.046;10.676;2022-12-18T08:25:00;-6.10;99.90
11126;DHT22;5617;54.046;10.676;2022-12-18T08:27:08;-6.10;99.90
11126;DHT22;5617;54.046;10.676;2022-12-18T08:29:15;-6.10;99.90
11126;DHT22;5617;54.046;10.676;2022-12-18T08:31:23;-6.10;99.90
11126;DHT22;5617;54.046;10.676;2022-12-18T08:33:30;-6.00;99.90
11126;DHT22;5617;54.046;10.676;2022-12-18T08:35:37;-6.00;99.90
11126;DHT22;5617;54.046;10.676;2022-12-18T08:37:44;-5.90;99.90
11126;DHT22;5617;54.046;10.676;2022-12-18T08:39:51;-6.00;99.90
11126;DHT22;5617;54.046;10.676;2022-12-18T08:41:58;-6.00;99.90
11126;DHT22;5617;54.046;10.676;2022-12-18T08:44:23;-5.90;99.90
11126;DHT22;5617;54.046;10.676;2022-12-18T08:46:46;-5.90;99.90
11126;DHT22;5617;54.046;10.676;2022-12-18T08:48:53;-5.90;99.90
11126;DHT22;5617;54.046;10.676;2022-12-18T08:51:00;-5.80;99.90
11126;DHT22;5617;54.046;10.676;2022-12-18T08:53:08;-5.80;99.90
11126;DHT22;5617;54.046;10.676;2022-12-18T08:55:14;-5.80;99.90
11126;DHT22;5617;54.046;10.676;2022-12-18T08:57:21;-5.80;99.90
11126;DHT22;5617;54.046;10.676;2022-12-18T08:59:30;-5.90;99.90
11126;DHT22;5617;54.046;10.676;2022-12-18T09:01:37;-5.90;99.90
11126;DHT22;5617;54.046;10.676;2022-12-18T09:03:47;-5.80;99.90
11126;DHT22;5617;54.046;10.676;2022-12-18T09:05:54;-5.80;99.90
11126;DHT22;5617;54.046;10.676;2022-12-18T09:08:01;-5.70;99.90
11126;DHT22;5617;54.046;10.676;2022-12-18T09:10:08;-5.70;99.90
11126;DHT22;5617;54.046;10.676;2022-12-18T09:12:15;-5.70;99.90
11126;DHT22;5617;54.046;10.676;2022-12-18T09:14:22;-5.50;99.90
11126;DHT22;5617;54.046;10.676;2022-12-18T09:16:31;-5.60;99.90
11126;DHT22;5617;54.046;10.676;2022-12-18T09:18:40;-5.50;99.90
11126;DHT22;5617;54.046;10.676;2022-12-18T09:20:48;-5.40;99.90
11126;DHT22;5617;54.046;10.676;2022-12-18T09:22:56;-5.50;99.90
11126;DHT22;5617;54.046;10.676;2022-12-18T09:25:06;-5.40;99.90
11126;DHT22;5617;54.046;10.676;2022-12-18T09:27:13;-5.40;99.90
11126;DHT22;5617;54.046;10.676;2022-12-18T09:29:20;-5.40;99.90
11126;DHT22;5617;54.046;10.676;2022-12-18T09:31:27;-5.40;99.90
11126;DHT22;5617;54.046;10.676;2022-12-18T09:33:35;-5.30;99.90
11126;DHT22;5617;54.046;10.676;2022-12-18T09:35:44;-5.30;99.90
11126;DHT22;5617;54.046;10.676;2022-12-18T09:37:52;-5.20;99.90
11126;DHT22;5617;54.046;10.676;2022-12-18T09:39:59;-5.00;99.90
11126;DHT22;5617;54.046;10.676;2022-12-18T09:42:10;-5.10;99.90
11126;DHT22;5617;54.046;10.676;2022-12-18T09:44:25;-5.10;99.90
11126;DHT22;5617;54.046;10.676;2022-12-18T09:46:36;-5.00;99.90
11126;DHT22;5617;54.046;10.676;2022-12-18T09:48:49;-4.90;99.90
11126;DHT22;5617;54.046;10.676;2022-12-18T09:51:00;-4.90;99.90
11126;DHT22;5617;54.046;10.676;2022-12-18T09:53:15;-4.80;99.90
11126;DHT22;5617;54.046;10.676;2022-12-18T09:55:28;-4.80;99.90
11126;DHT22;5617;54.046;10.676;2022-12-18T09:57:39;-4.70;99.90
11126;DHT22;5617;54.046;10.676;2022-12-18T09:59:51;-4.70;99.90
11126;DHT22;5617;54.046;10.676;2022-12-18T10:01:59;-4.60;99.90
11126;DHT22;5617;54.046;10.676;2022-12-18T10:04:09;-4.50;99.90
11126;DHT22;5617;54.046;10.676;2022-12-18T10:06:26;-4.40;99.90
11126;DHT22;5617;54.046;10.676;2022-12-18T10:08:40;-4.40;99.90
11126;DHT22;5617;54.046;10.676;2022-12-18T10:10:51;-4.20;99.90
11126;DHT22;5617;54.046;10.676;2022-12-18T10:13:05;-4.10;99.90
11126;DHT22;5617;54.046;10.676;2022-12-18T10:15:18;-4.10;99.90
11126;DHT22;5617;54.046;10.676;2022-12-18T10:17:36;-4.00;99.90
11126;DHT22;5617;54.046;10.676;2022-12-18T10:19:49;-3.70;99.90
11126;DHT22;5617;54.046;10.676;2022-12-18T10:22:02;-3.90;99.90
11126;DHT22;5617;54.046;10.676;2022-12-18T10:24:20;-3.80;99.90
11126;DHT22;5617;54.046;10.676;2022-12-18T10:26:31;-3.60;99.90
11126;DHT22;5617;54.046;10.676;2022-12-18T10:28:39;-3.60;99.90
11126;DHT22;5617;54.046;10.676;2022-12-18T10:30:47;-3.60;99.90
11126;DHT22;5617;54.046;10.676;2022-12-18T10:32:54;-3.50;99.90
11126;DHT22;5617;54.046;10.676;2022-12-18T10:35:03;-3.30;99.90
11126;DHT22;5617;54.046;10.676;2022-12-18T10:37:15;-3.50;99.90
11126;DHT22;5617;54.046;10.676;2022-12-18T10:39:23;-3.40;99.90
11126;DHT22;5617;54.046;10.676;2022-12-18T10:41:31;-3.30;99.90
11126;DHT22;5617;54.046;10.676;2022-12-18T10:43:39;-3.10;99.90
11126;DHT22;5617;54.046;10.676;2022-12-18T10:46:03;-2.90;99.90
11126;DHT22;5617;54.046;10.676;2022-12-18T10:48:19;-2.80;99.90
11126;DHT22;5617;54.046;10.676;2022-12-18T10:50:30;-2.60;99.90
11126;DHT22;5617;54.046;10.676;2022-12-18T10:52:38;-2.40;99.90
11126;DHT22;5617;54.046;10.676;2022-12-18T10:54:52;-2.30;99.90
11126;DHT22;5617;54.046;10.676;2022-12-18T10:57:14;-2.20;99.90
11126;DHT22;5617;54.046;10.676;2022-12-18T10:59:22;-2.00;99.90
11126;DHT22;5617;54.046;10.676;2022-12-18T11:01:34;-1.90;99.90
11126;DHT22;5617;54.046;10.676;2022-12-18T11:04:00;-1.90;99.90
11126;DHT22;5617;54.046;10.676;2022-12-18T11:06:11;-1.90;99.90
11126;DHT22;5617;54.046;10.676;2022-12-18T11:08:20;-1.80;99.90
11126;DHT22;5617;54.046;10.676;2022-12-18T11:10:32;-1.60;99.90
11126;DHT22;5617;54.046;10.676;2022-12-18T11:12:39;-1.50;99.90
11126;DHT22;5617;54.046;10.676;2022-12-18T11:14:48;-1.40;99.90
11126;DHT22;5617;54.046;10.676;2022-12-18T11:16:58;-1.40;99.90
11126;DHT22;5617;54.046;10.676;2022-12-18T11:19:19;-1.30;99.90
11126;DHT22;5617;54.046;10.676;2022-12-18T11:21:28;-1.10;99.90
11126;DHT22;5617;54.046;10.676;2022-12-18T11:23:36;-1.00;99.90
11126;DHT22;5617;54.046;10.676;2022-12-18T11:25:51;-1.20;99.90
11126;DHT22;5617;54.046;10.676;2022-12-18T11:28:00;-1.30;99.90
11126;DHT22;5617;54.046;10.676;2022-12-18T11:30:08;-1.50;99.90
11126;DHT22;5617;54.046;10.676;2022-12-18T11:32:33;-1.50;99.90
11126;DHT22;5617;54.046;10.676;2022-12-18T11:34:44;-1.30;99.90
11126;DHT22;5617;54.046;10.676;2022-12-18T11:36:54;-1.10;99.90
11126;DHT22;5617;54.046;10.676;2022-12-18T11:39:07;-1.10;99.90
11126;DHT22;5617;54.046;10.676;2022-12-18T11:41:21;-1.10;99.90
11126;DHT22;5617;54.046;10.676;2022-12-18T11:43:54;-0.90;99.90
11126;DHT22;5617;54.046;10.676;2022-12-18T11:46:06;-0.90;99.90
11126;DHT22;5617;54.046;10.676;2022-12-18T11:48:18;-1.00;99.90
11126;DHT22;5617;54.046;10.676;2022-12-18T11:50:31;-1.30;99.90
11126;DHT22;5617;54.046;10.676;2022-12-18T11:52:40;-1.20;99.90
11126;DHT22;5617;54.046;10.676;2022-12-18T11:54:51;-1.40;99.90
11126;DHT22;5617;54.046;10.676;2022-12-18T11:57:03;-1.50;99.90
11126;DHT22;5617;54.046;10.676;2022-12-18T11:59:20;-1.60;99.90
11126;DHT22;5617;54.046;10.676;2022-12-18T12:01:42;-1.50;99.90
11126;DHT22;5617;54.046;10.676;2022-12-18T12:04:04;-1.50;99.90
11126;DHT22;5617;54.046;10.676;2022-12-18T12:06:17;-1.50;99.90
11126;DHT22;5617;54.046;10.676;2022-12-18T12:08:37;-1.50;99.90
11126;DHT22;5617;54.046;10.676;2022-12-18T12:10:53;-1.50;99.90
11126;DHT22;5617;54.046;10.676;2022-12-18T12:13:16;-1.40;99.90
11126;DHT22;5617;54.046;10.676;2022-12-18T12:15:32;-1.30;99.90
11126;DHT22;5617;54.046;10.676;2022-12-18T12:17:47;-1.30;99.90
11126;DHT22;5617;54.046;10.676;2022-12-18T12:20:00;-1.30;99.90
11126;DHT22;5617;54.046;10.676;2022-12-18T12:22:16;-1.30;99.90
11126;DHT22;5617;54.046;10.676;2022-12-18T12:24:33;-1.20;99.90
11126;DHT22;5617;54.046;10.676;2022-12-18T12:26:52;-1.10;99.90
11126;DHT22;5617;54.046;10.676;2022-12-18T12:29:20;-1.10;99.90
11126;DHT22;5617;54.046;10.676;2022-12-18T12:31:46;-1.10;99.90
11126;DHT22;5617;54.046;10.676;2022-12-18T12:34:04;-1.20;99.90
11126;DHT22;5617;54.046;10.676;2022-12-18T12:36:17;-1.30;99.90
11126;DHT22;5617;54.046;10.676;2022-12-18T12:38:33;-1.30;99.90
11126;DHT22;5617;54.046;10.676;2022-12-18T12:40:46;-1.30;99.90
11126;DHT22;5617;54.046;10.676;2022-12-18T12:42:58;-1.40;99.90
11126;DHT22;5617;54.046;10.676;2022-12-18T12:45:24;-1.40;99.90
11126;DHT22;5617;54.046;10.676;2022-12-18T12:47:36;-1.40;99.90
11126;DHT22;5617;54.046;10.676;2022-12-18T12:49:46;-1.40;99.90
11126;DHT22;5617;54.046;10.676;2022-12-18T12:51:58;-1.40;99.90
11126;DHT22;5617;54.046;10.676;2022-12-18T12:54:12;-1.30;99.90
11126;DHT22;5617;54.046;10.676;2022-12-18T12:56:27;-1.20;99.90
11126;DHT22;5617;54.046;10.676;2022-12-18T12:58:45;-1.20;99.90
11126;DHT22;5617;54.046;10.676;2022-12-18T13:00:56;-1.10;99.90
11126;DHT22;5617;54.046;10.676;2022-12-18T13:03:12;-1.10;99.90
11126;DHT22;5617;54.046;10.676;2022-12-18T13:05:25;-1.00;99.90
11126;DHT22;5617;54.046;10.676;2022-12-18T13:07:39;-1.00;99.90
11126;DHT22;5617;54.046;10.676;2022-12-18T13:10:21;-1.10;99.90
11126;DHT22;5617;54.046;10.676;2022-12-18T13:12:31;-1.10;99.90
11126;DHT22;5617;54.046;10.676;2022-12-18T13:15:12;-1.20;99.90
11126;DHT22;5617;54.046;10.676;2022-12-18T13:17:28;-1.20;99.90
11126;DHT22;5617;54.046;10.676;2022-12-18T13:19:36;-1.30;99.90
11126;DHT22;5617;54.046;10.676;2022-12-18T13:21:52;-1.30;99.90
11126;DHT22;5617;54.046;10.676;2022-12-18T13:24:15;-1.40;99.90
11126;DHT22;5617;54.046;10.676;2022-12-18T13:26:33;-1.40;99.90
11126;DHT22;5617;54.046;10.676;2022-12-18T13:28:53;-1.40;99.90
11126;DHT22;5617;54.046;10.676;2022-12-18T13:31:01;-1.40;99.90
11126;DHT22;5617;54.046;10.676;2022-12-18T13:36:01;-1.70;99.90
11126;DHT22;5617;54.046;10.676;2022-12-18T13:38:21;-1.70;99.90
11126;DHT22;5617;54.046;10.676;2022-12-18T13:40:58;-1.70;99.90
11126;DHT22;5617;54.046;10.676;2022-12-18T13:43:20;-1.80;99.90
11126;DHT22;5617;54.046;10.676;2022-12-18T13:45:41;-1.90;99.90